createdAt,value
2023-05-06T00:02:44.655Z,54.90
2023-05-06T00:05:50.710Z,55.13
2023-05-06T00:08:57.480Z,55.83
2023-05-06T00:12:03.398Z,55.83
2023-05-06T00:15:14.017Z,55.89
2023-05-06T00:18:28.766Z,55.84
2023-05-06T00:21:41.957Z,56.05
2023-05-06T00:24:48.072Z,56.03
2023-05-06T00:28:01.215Z,55.99
2023-05-06T00:31:10.852Z,56.52
2023-05-06T00:34:17.594Z,57.12
2023-05-06T00:37:23.483Z,57.20
2023-05-06T00:40:30.340Z,57.16
2023-05-06T00:43:36.329Z,57.52
2023-05-06T00:46:46.581Z,58.10
2023-05-06T00:50:00.196Z,57.78
2023-05-06T00:53:24.685Z,57.95
2023-05-06T00:56:31.514Z,58.12
2023-05-06T00:59:40.057Z,58.35
2023-05-06T01:02:49.701Z,58.06
2023-05-06T01:06:22.129Z,58.23
2023-05-06T01:09:41.919Z,58.49
2023-05-06T01:13:01.289Z,59.11
2023-05-06T01:16:12.534Z,59.14
2023-05-06T01:19:46.892Z,59.16
2023-05-06T01:22:59.249Z,59.35
2023-05-06T01:26:18.092Z,59.51
2023-05-06T01:29:24.889Z,60.00
2023-05-06T01:32:47.827Z,59.87
2023-05-06T01:36:23.996Z,60.12
2023-05-06T01:39:52.220Z,60.36
2023-05-06T01:43:08.037Z,60.79
2023-05-06T01:46:21.025Z,60.13
2023-05-06T01:49:30.609Z,60.77
2023-05-06T01:52:36.570Z,60.41
2023-05-06T01:55:43.409Z,60.58
2023-05-06T01:58:51.925Z,60.69
2023-05-06T02:01:59.782Z,60.78
2023-05-06T02:05:08.401Z,61.09
2023-05-06T02:08:22.773Z,60.84
2023-05-06T02:11:29.448Z,61.36
2023-05-06T02:14:46.747Z,61.37
2023-05-06T02:17:52.937Z,61.48
2023-05-06T02:21:01.833Z,61.92
2023-05-06T02:24:08.788Z,62.03
2023-05-06T02:27:16.340Z,62.12
2023-05-06T02:30:24.958Z,62.31
2023-05-06T02:33:31.610Z,62.05
2023-05-06T02:36:37.753Z,62.18
2023-05-06T02:39:46.324Z,62.35
2023-05-06T02:42:52.515Z,62.66
2023-05-06T02:46:01.972Z,62.84
2023-05-06T02:49:12.648Z,62.78
2023-05-06T02:52:21.853Z,62.74
2023-05-06T02:55:28.021Z,62.94
2023-05-06T02:58:36.242Z,63.17
2023-05-06T03:01:51.016Z,63.01
2023-05-06T03:04:57.858Z,63.28
2023-05-06T03:08:03.963Z,63.01
2023-05-06T03:11:14.404Z,62.99
2023-05-06T03:14:20.591Z,63.43
2023-05-06T03:17:30.072Z,63.28
2023-05-06T03:20:38.864Z,63.54
2023-05-06T03:23:47.436Z,63.63
2023-05-06T03:26:54.524Z,63.50
2023-05-06T03:30:08.032Z,63.21
2023-05-06T03:33:17.888Z,63.48
2023-05-06T03:36:25.560Z,63.22
2023-05-06T03:39:33.291Z,63.72
2023-05-06T03:42:41.228Z,63.50
2023-05-06T03:45:48.080Z,63.59
2023-05-06T03:48:58.618Z,63.70
2023-05-06T03:52:05.134Z,64.42
2023-05-06T03:55:19.104Z,64.04
2023-05-06T03:58:25.562Z,63.52
2023-05-06T04:01:32.632Z,63.34
2023-05-06T04:04:43.756Z,63.10
2023-05-06T04:07:51.973Z,63.17
2023-05-06T04:10:58.541Z,63.45
2023-05-06T04:14:08.355Z,63.46
2023-05-06T04:17:15.770Z,63.20
2023-05-06T04:20:26.626Z,63.30
2023-05-06T04:23:33.149Z,63.31
2023-05-06T04:26:41.101Z,63.14
2023-05-06T04:29:47.476Z,63.16
2023-05-06T04:32:56.054Z,63.24
2023-05-06T04:36:05.014Z,62.85
2023-05-06T04:39:13.392Z,63.34
2023-05-06T04:42:20.376Z,63.43
2023-05-06T04:45:40.897Z,63.73
2023-05-06T04:48:47.112Z,63.23
2023-05-06T04:52:05.143Z,63.02
2023-05-06T04:55:13.394Z,62.71
2023-05-06T04:58:26.414Z,62.71
2023-05-06T05:01:33.732Z,62.32
2023-05-06T05:04:47.519Z,62.01
2023-05-06T05:08:09.062Z,62.22
2023-05-06T05:11:36.123Z,62.29
2023-05-06T05:14:43.013Z,61.47
2023-05-06T05:17:52.725Z,61.76
2023-05-06T05:21:11.987Z,60.78
2023-05-06T05:24:22.091Z,59.96
2023-05-06T05:27:28.146Z,60.94
2023-05-06T05:30:37.304Z,59.97
2023-05-06T05:33:44.632Z,59.11
2023-05-06T05:36:56.265Z,59.01
2023-05-06T05:40:08.328Z,58.82
2023-05-06T05:43:18.053Z,58.46
2023-05-06T05:46:24.305Z,57.76
2023-05-06T05:49:32.079Z,57.15
2023-05-06T05:52:38.162Z,57.78
2023-05-06T05:55:47.990Z,58.31
2023-05-06T05:58:55.989Z,57.43
2023-05-06T06:02:10.585Z,56.45
2023-05-06T06:05:17.009Z,56.55
2023-05-06T06:08:24.345Z,56.46
2023-05-06T06:11:34.277Z,55.31
2023-05-06T06:14:42.136Z,55.35
2023-05-06T06:17:48.764Z,54.02
2023-05-06T06:20:57.381Z,53.58
2023-05-06T06:24:03.630Z,53.42
2023-05-06T06:27:21.947Z,51.89
2023-05-06T06:30:28.827Z,50.94
2023-05-06T06:33:38.418Z,51.65
2023-05-06T06:36:46.415Z,50.25
2023-05-06T06:39:53.309Z,51.83
2023-05-06T06:43:08.140Z,52.08
2023-05-06T06:46:36.618Z,51.86
2023-05-06T06:49:42.752Z,51.38
2023-05-06T06:52:49.724Z,52.25
2023-05-06T06:55:56.914Z,51.45
2023-05-06T06:59:06.351Z,52.38
2023-05-06T07:02:12.378Z,52.30
2023-05-06T07:05:19.614Z,51.70
2023-05-06T07:08:25.740Z,51.00
2023-05-06T07:11:32.627Z,52.41
2023-05-06T07:14:41.870Z,52.66
2023-05-06T07:17:48.933Z,51.70
2023-05-06T07:20:55.017Z,51.54
2023-05-06T07:24:01.864Z,50.91
2023-05-06T07:27:07.789Z,51.47
2023-05-06T07:30:21.685Z,52.35
2023-05-06T07:33:29.297Z,51.93
2023-05-06T07:36:47.263Z,51.85
2023-05-06T07:39:53.521Z,51.97
2023-05-06T07:43:00.376Z,53.05
2023-05-06T07:46:09.261Z,53.14
2023-05-06T07:49:25.739Z,53.45
2023-05-06T07:52:31.831Z,53.20
2023-05-06T07:55:38.948Z,54.02
2023-05-06T07:58:44.939Z,54.21
2023-05-06T08:01:54.512Z,54.35
2023-05-06T08:05:00.672Z,54.57
2023-05-06T08:08:08.420Z,54.38
2023-05-06T08:11:14.647Z,54.45
2023-05-06T08:14:21.756Z,54.63
2023-05-06T08:17:33.043Z,54.58
2023-05-06T08:20:42.245Z,54.42
2023-05-06T08:23:48.272Z,53.75
2023-05-06T08:26:55.255Z,55.34
2023-05-06T08:30:01.391Z,55.04
2023-05-06T08:33:11.148Z,54.73
2023-05-06T08:36:17.045Z,54.56
2023-05-06T08:39:24.088Z,54.35
2023-05-06T08:42:31.458Z,54.21
2023-05-06T08:45:40.652Z,54.32
2023-05-06T08:48:49.393Z,53.81
2023-05-06T08:51:57.148Z,53.15
2023-05-06T08:55:08.432Z,53.33
2023-05-06T08:58:20.378Z,54.40
2023-05-06T09:01:26.914Z,53.86
2023-05-06T09:04:36.732Z,53.94
2023-05-06T09:07:42.897Z,53.95
2023-05-06T09:10:51.094Z,54.29
2023-05-06T09:14:14.198Z,55.01
2023-05-06T09:17:28.479Z,54.67
2023-05-06T09:20:45.126Z,55.95
2023-05-06T09:23:52.133Z,57.64
2023-05-06T09:27:01.895Z,59.08
2023-05-06T09:30:13.181Z,61.23
2023-05-06T09:33:19.702Z,61.22
2023-05-06T09:36:31.832Z,64.13
2023-05-06T09:39:37.990Z,65.22
2023-05-06T09:42:47.877Z,66.19
2023-05-06T09:45:56.568Z,68.25
2023-05-06T09:49:04.367Z,69.12
2023-05-06T09:52:16.440Z,72.43
2023-05-06T09:55:27.058Z,73.03
2023-05-06T09:58:36.096Z,73.78
2023-05-06T10:01:44.035Z,74.47
2023-05-06T10:05:11.569Z,75.52
2023-05-06T10:08:23.167Z,76.54
2023-05-06T10:11:32.409Z,76.17
2023-05-06T10:14:39.714Z,76.19
2023-05-06T10:17:49.261Z,78.03
2023-05-06T10:20:57.262Z,78.08
2023-05-06T10:24:14.045Z,78.61
2023-05-06T10:27:27.628Z,77.20
2023-05-06T10:30:44.074Z,77.12
2023-05-06T10:33:56.720Z,78.61
2023-05-06T10:37:04.976Z,79.13
2023-05-06T10:40:19.533Z,79.15
2023-05-06T10:43:32.224Z,80.75
2023-05-06T10:47:03.689Z,81.09
2023-05-06T10:50:26.023Z,81.26
2023-05-06T10:54:06.128Z,80.19
2023-05-06T10:57:15.183Z,81.81
2023-05-06T11:00:22.749Z,82.50
2023-05-06T11:03:28.971Z,83.20
2023-05-06T11:06:43.064Z,82.66
2023-05-06T11:10:00.593Z,82.97
2023-05-06T11:13:28.027Z,83.74
2023-05-06T11:16:52.070Z,83.49
2023-05-06T11:20:23.930Z,84.67
2023-05-06T11:24:13.770Z,85.77
2023-05-06T11:27:26.390Z,86.82
2023-05-06T11:30:34.962Z,87.16
2023-05-06T11:33:50.642Z,87.79
2023-05-06T11:37:05.292Z,88.27
2023-05-06T11:40:18.930Z,87.39
2023-05-06T11:43:24.883Z,89.49
2023-05-06T11:46:36.913Z,89.65
2023-05-06T11:49:45.787Z,90.39
2023-05-06T11:52:52.651Z,90.36
2023-05-06T11:55:58.796Z,91.21
2023-05-06T11:59:05.596Z,90.78
2023-05-06T12:02:18.098Z,91.22
2023-05-06T12:05:29.701Z,91.01
2023-05-06T12:08:39.064Z,91.66
2023-05-06T12:11:48.115Z,91.21
2023-05-06T12:14:56.964Z,91.56
2023-05-06T12:18:08.794Z,91.08
2023-05-06T12:21:14.967Z,90.08
2023-05-06T12:24:31.947Z,91.36
2023-05-06T12:27:39.887Z,91.57
2023-05-06T12:30:47.813Z,91.93
2023-05-06T12:34:01.063Z,92.44
2023-05-06T12:37:11.738Z,91.25
2023-05-06T12:40:22.990Z,91.55
2023-05-06T12:43:34.101Z,92.17
2023-05-06T12:46:53.954Z,92.64
2023-05-06T12:50:03.415Z,92.70
2023-05-06T12:53:13.602Z,92.22
2023-05-06T12:56:20.701Z,92.29
2023-05-06T12:59:29.312Z,90.68
2023-05-06T13:02:38.236Z,90.65
2023-05-06T13:05:52.139Z,90.43
2023-05-06T13:08:59.402Z,88.36
2023-05-06T13:12:05.870Z,88.82
2023-05-06T13:15:14.062Z,87.20
2023-05-06T13:18:20.112Z,84.91
2023-05-06T13:21:31.953Z,84.88
2023-05-06T13:24:37.912Z,84.04
2023-05-06T13:27:44.768Z,83.64
2023-05-06T13:30:50.811Z,82.91
2023-05-06T13:33:58.149Z,82.76
2023-05-06T13:37:08.142Z,81.60
2023-05-06T13:40:16.671Z,81.54
2023-05-06T13:43:25.051Z,81.53
2023-05-06T13:46:34.552Z,81.98
2023-05-06T13:49:42.395Z,80.63
2023-05-06T13:52:51.802Z,78.97
2023-05-06T13:55:57.837Z,79.11
2023-05-06T13:59:08.421Z,77.12
2023-05-06T14:02:16.698Z,76.01
2023-05-06T14:05:23.620Z,77.03
2023-05-06T14:08:33.263Z,75.58
2023-05-06T14:11:40.204Z,74.87
2023-05-06T14:14:46.160Z,73.99
2023-05-06T14:17:53.167Z,73.59
2023-05-06T14:20:59.434Z,71.29
2023-05-06T14:24:10.557Z,71.27
2023-05-06T14:27:21.741Z,70.63
2023-05-06T14:30:28.832Z,71.56
2023-05-06T14:33:34.945Z,71.16
2023-05-06T14:36:41.666Z,70.83
2023-05-06T14:39:50.276Z,70.56
2023-05-06T14:42:57.033Z,69.68
2023-05-06T14:46:03.161Z,70.57
2023-05-06T14:49:09.926Z,70.03
2023-05-06T14:52:16.866Z,69.13
2023-05-06T14:55:26.443Z,69.25
2023-05-06T14:58:32.353Z,68.70
2023-05-06T15:01:39.178Z,68.64
2023-05-06T15:04:46.244Z,68.05
2023-05-06T15:07:53.093Z,67.12
2023-05-06T15:11:05.094Z,66.06
2023-05-06T15:14:11.904Z,66.66
2023-05-06T15:17:18.248Z,66.57
2023-05-06T15:20:24.934Z,65.92
2023-05-06T15:23:37.311Z,66.59
2023-05-06T15:26:50.537Z,67.00
2023-05-06T15:30:08.692Z,67.41
2023-05-06T15:33:18.148Z,65.95
2023-05-06T15:36:24.046Z,66.48
2023-05-06T15:39:31.043Z,66.57
2023-05-06T15:42:41.665Z,66.93
2023-05-06T15:45:50.834Z,67.59
2023-05-06T15:49:22.448Z,68.33
2023-05-06T15:52:28.929Z,68.19
2023-05-06T15:55:43.728Z,68.39
2023-05-06T15:58:53.738Z,69.15
2023-05-06T16:05:18.347Z,68.36
2023-05-06T16:08:31.920Z,68.26
2023-05-06T16:11:38.608Z,69.20
2023-05-06T16:14:47.922Z,69.21
2023-05-06T16:17:54.719Z,69.84
2023-05-06T16:21:01.588Z,69.93
2023-05-06T16:24:11.718Z,70.20
2023-05-06T16:27:20.515Z,70.45
2023-05-06T16:30:31.232Z,70.90
2023-05-06T16:33:37.478Z,70.73
2023-05-06T16:36:44.652Z,71.23
2023-05-06T16:39:56.092Z,71.39
2023-05-06T16:43:03.019Z,70.49
2023-05-06T16:46:11.580Z,70.82
2023-05-06T16:49:20.636Z,70.49
2023-05-06T16:52:26.841Z,70.88
2023-05-06T16:55:33.738Z,71.61
2023-05-06T16:58:39.760Z,71.57
2023-05-06T17:01:49.193Z,71.96
2023-05-06T17:04:55.341Z,72.29
2023-05-06T17:08:03.966Z,71.75
2023-05-06T17:11:11.768Z,72.35
2023-05-06T17:14:20.165Z,71.43
2023-05-06T17:17:29.105Z,71.56
2023-05-06T17:20:51.404Z,71.70
2023-05-06T17:24:01.777Z,71.56
2023-05-06T17:27:08.712Z,71.97
2023-05-06T17:30:15.556Z,72.23
2023-05-06T17:33:25.186Z,72.18
2023-05-06T17:36:31.537Z,71.84
2023-05-06T17:39:38.776Z,72.15
2023-05-06T17:42:46.418Z,72.40
2023-05-06T17:45:53.360Z,72.32
2023-05-06T17:49:02.080Z,73.06
2023-05-06T17:52:11.784Z,72.53
2023-05-06T17:55:18.090Z,73.23
2023-05-06T17:58:24.968Z,73.36
2023-05-06T18:01:35.653Z,74.33
2023-05-06T18:04:47.721Z,73.93
2023-05-06T18:07:53.717Z,74.08
2023-05-06T18:11:00.766Z,74.40
2023-05-06T18:14:15.150Z,75.19
2023-05-06T18:17:22.150Z,75.56
2023-05-06T18:20:30.925Z,76.35
2023-05-06T18:23:37.758Z,76.62
2023-05-06T18:26:45.832Z,76.06
2023-05-06T18:29:53.237Z,75.94
2023-05-06T18:32:59.331Z,76.31
2023-05-06T18:36:17.676Z,76.34
2023-05-06T18:39:26.989Z,76.99
2023-05-06T18:42:35.306Z,76.64
2023-05-06T18:45:41.701Z,77.59
2023-05-06T18:48:48.666Z,77.28
2023-05-06T18:51:57.751Z,77.61
2023-05-06T18:55:04.966Z,77.57
2023-05-06T18:58:14.334Z,78.27
2023-05-06T19:01:40.441Z,78.49
2023-05-06T19:04:47.886Z,78.57
2023-05-06T19:08:02.077Z,78.59
2023-05-06T19:11:19.449Z,78.34
2023-05-06T19:14:26.339Z,78.02
2023-05-06T19:17:32.286Z,77.97
2023-05-06T19:20:39.604Z,78.16
2023-05-06T19:23:49.517Z,77.82
2023-05-06T19:26:56.343Z,77.60
2023-05-06T19:30:17.496Z,77.69
2023-05-06T19:33:24.530Z,77.97
2023-05-06T19:36:50.445Z,77.94
2023-05-06T19:40:04.156Z,77.64
2023-05-06T19:43:10.121Z,78.26
2023-05-06T19:46:20.326Z,78.17
2023-05-06T19:49:26.701Z,78.00
2023-05-06T19:52:34.904Z,77.96
2023-05-06T19:55:48.722Z,77.47
2023-05-06T19:58:58.069Z,77.74
2023-05-06T20:02:10.530Z,77.81
2023-05-06T20:05:17.591Z,77.42
2023-05-06T20:08:24.920Z,77.34
2023-05-06T20:11:34.991Z,76.92
2023-05-06T20:14:54.402Z,77.47
2023-05-06T20:18:01.819Z,77.52
2023-05-06T20:21:07.804Z,77.44
2023-05-06T20:24:14.732Z,77.25
2023-05-06T20:27:23.776Z,77.41
2023-05-06T20:30:30.841Z,78.78
2023-05-06T20:33:37.024Z,78.85
2023-05-06T20:36:44.924Z,78.95
2023-05-06T20:39:50.977Z,79.03
2023-05-06T20:43:00.444Z,79.16
2023-05-06T20:46:07.136Z,79.07
2023-05-06T20:49:14.129Z,78.74
2023-05-06T20:52:21.846Z,79.17
2023-05-06T20:55:30.743Z,78.34
2023-05-06T20:58:39.302Z,78.13
2023-05-06T21:01:46.226Z,78.79
2023-05-06T21:04:52.522Z,78.39
2023-05-06T21:07:59.371Z,78.08
2023-05-06T21:11:15.490Z,78.35
2023-05-06T21:14:25.568Z,78.41
2023-05-06T21:17:32.266Z,78.31
2023-05-06T21:20:39.292Z,78.17
2023-05-06T21:23:45.291Z,78.25
2023-05-06T21:26:52.208Z,77.91
2023-05-06T21:30:03.916Z,77.90
2023-05-06T21:33:11.530Z,78.91
2023-05-06T21:36:17.755Z,78.79
2023-05-06T21:39:32.355Z,78.78
2023-05-06T21:42:38.289Z,78.39
2023-05-06T21:45:48.364Z,78.71
2023-05-06T21:48:54.278Z,78.65
2023-05-06T21:52:01.074Z,78.45
2023-05-06T21:55:08.725Z,78.04
2023-05-06T21:58:16.505Z,78.75
2023-05-06T22:01:26.452Z,78.32
2023-05-06T22:04:36.526Z,77.83
2023-05-06T22:07:42.500Z,77.81
2023-05-06T22:10:49.446Z,78.33
2023-05-06T22:13:55.422Z,77.95
2023-05-06T22:17:05.212Z,78.66
2023-05-06T22:20:16.379Z,78.54
2023-05-06T22:23:24.333Z,79.09
2023-05-06T22:26:36.508Z,79.02
2023-05-06T22:29:43.450Z,79.23
2023-05-06T22:32:52.186Z,79.89
2023-05-06T22:35:59.162Z,80.06
2023-05-06T22:39:12.449Z,80.76
2023-05-06T22:42:19.227Z,80.37
2023-05-06T22:45:33.533Z,80.88
2023-05-06T22:48:45.031Z,81.10
2023-05-06T22:51:51.293Z,81.45
2023-05-06T22:54:58.073Z,81.66
2023-05-06T22:58:04.109Z,81.60
2023-05-06T23:01:11.074Z,81.54
2023-05-06T23:04:19.678Z,81.24
2023-05-06T23:07:26.719Z,82.06
2023-05-06T23:10:32.722Z,81.91
2023-05-06T23:13:39.428Z,81.34
2023-05-06T23:16:49.925Z,81.42
2023-05-06T23:20:06.244Z,80.72
2023-05-06T23:23:18.216Z,81.10
2023-05-06T23:26:25.145Z,80.69
2023-05-06T23:29:31.222Z,80.27
2023-05-06T23:32:38.186Z,80.97
2023-05-06T23:35:47.933Z,79.88
2023-05-06T23:38:54.686Z,79.99
2023-05-06T23:42:00.952Z,79.59
2023-05-06T23:45:09.339Z,79.98
2023-05-06T23:48:16.522Z,79.91
2023-05-06T23:51:26.866Z,80.13
2023-05-06T23:54:33.139Z,80.32
2023-05-06T23:57:40.115Z,79.73
